Time;durP1;ratioP1;P1;durP2;ratioP2;P2;SDS_P1;SDS_P2;PMS_P1;PMS_P2;Temp;Humidity;BMP_temperature;BMP_pressure;BME280_temperature;BME280_humidity;BME280_pressure;Samples;Min_cycle;Max_cycle;Signal;HPM_P1;HPM_P2
2023/06/02 00:09:55;;;;;;;6.85;2.58;;;;;;;;;;21002675;28;20398;-68
2023/06/02 00:19:56;;;;;;;3.88;2.33;;;;;;;;;;21002735;28;20044;-67
2023/06/02 00:29:57;;;;;;;3.20;2.13;;;;;;;;;;21001186;28;20058;-67
2023/06/02 00:39:59;;;;;;;4.40;2.20;;;;;;;;;;21001351;28;20116;-67
2023/06/02 00:50:00;;;;;;;3.15;1.95;;;;;;;;;;21000197;28;20123;-67
2023/06/02 01:00:06;;;;;;;3.47;1.95;;;;;;;;;;20998349;28;20045;-67
2023/06/02 01:10:08;;;;;;;4.95;1.88;;;;;;;;;;20997479;28;20040;-67
2023/06/02 01:20:10;;;;;;;3.45;2.08;;;;;;;;;;20997089;28;20045;-67
2023/06/02 01:30:11;;;;;;;3.22;1.73;;;;;;;;;;20995556;28;20052;-67
2023/06/02 01:40:13;;;;;;;4.88;2.10;;;;;;;;;;20996805;28;20506;-67
2023/06/02 01:50:14;;;;;;;6.40;1.95;;;;;;;;;;20994447;28;20043;-67
2023/06/02 02:00:16;;;;;;;4.35;1.90;;;;;;;;;;20995297;28;20055;-68
2023/06/02 02:10:17;;;;;;;3.78;1.88;;;;;;;;;;20994798;28;20044;-67
2023/06/02 02:20:19;;;;;;;5.35;2.40;;;;;;;;;;20993808;28;20048;-66
2023/06/02 02:30:20;;;;;;;2.85;1.98;;;;;;;;;;20993680;28;20080;-67
2023/06/02 02:40:21;;;;;;;2.95;2.15;;;;;;;;;;21006260;28;20124;-68
2023/06/02 02:50:22;;;;;;;5.97;2.50;;;;;;;;;;21009683;28;20040;-66
2023/06/02 03:00:23;;;;;;;5.03;2.22;;;;;;;;;;21009021;28;20122;-67
2023/06/02 03:10:25;;;;;;;3.63;2.22;;;;;;;;;;21008016;28;20397;-66
2023/06/02 03:20:26;;;;;;;3.78;2.50;;;;;;;;;;21007240;28;20055;-66
2023/06/02 03:30:27;;;;;;;3.30;1.95;;;;;;;;;;21005639;28;20060;-67
2023/06/02 03:40:28;;;;;;;3.78;2.03;;;;;;;;;;21004384;28;20041;-66
2023/06/02 03:50:29;;;;;;;3.65;1.95;;;;;;;;;;21003769;28;20076;-67
2023/06/02 04:00:30;;;;;;;4.20;2.47;;;;;;;;;;21004189;28;20076;-67
2023/06/02 04:10:31;;;;;;;3.20;1.88;;;;;;;;;;21003179;28;20044;-67
2023/06/02 04:20:33;;;;;;;4.13;2.00;;;;;;;;;;21002765;28;20045;-67
2023/06/02 04:30:36;;;;;;;4.07;2.30;;;;;;;;;;21001039;28;20048;-67
2023/06/02 04:40:38;;;;;;;3.70;2.20;;;;;;;;;;21001167;28;20044;-67
2023/06/02 04:50:40;;;;;;;3.85;2.13;;;;;;;;;;20999814;28;20055;-67
2023/06/02 05:00:41;;;;;;;4.82;2.42;;;;;;;;;;20998977;28;20055;-67
2023/06/02 05:10:42;;;;;;;6.70;2.80;;;;;;;;;;20999537;28;20062;-67
2023/06/02 05:20:43;;;;;;;4.57;2.88;;;;;;;;;;20999147;28;20058;-67
2023/06/02 05:30:44;;;;;;;5.05;2.95;;;;;;;;;;20997450;28;20405;-67
2023/06/02 05:40:45;;;;;;;5.90;3.00;;;;;;;;;;20996378;28;20052;-67
2023/06/02 05:50:47;;;;;;;5.07;3.20;;;;;;;;;;20997296;28;20444;-67
2023/06/02 06:00:48;;;;;;;5.53;3.33;;;;;;;;;;20997131;28;20083;-67
2023/06/02 06:10:49;;;;;;;3.85;2.78;;;;;;;;;;21001323;28;20080;-67
2023/06/02 06:20:50;;;;;;;7.07;3.40;;;;;;;;;;21013105;28;20115;-67
2023/06/02 06:30:51;;;;;;;11.63;3.70;;;;;;;;;;21012778;28;20135;-66
2023/06/02 06:40:52;;;;;;;6.20;3.33;;;;;;;;;;21010213;28;20052;-67
2023/06/02 06:50:54;;;;;;;8.20;3.78;;;;;;;;;;21009336;28;20044;-68
2023/06/02 07:00:55;;;;;;;6.57;3.65;;;;;;;;;;21009261;28;20040;-67
2023/06/02 07:10:56;;;;;;;6.60;4.00;;;;;;;;;;21008923;28;20122;-67
2023/06/02 07:20:57;;;;;;;6.00;3.50;;;;;;;;;;21008345;28;20059;-67
2023/06/02 07:30:58;;;;;;;7.38;3.60;;;;;;;;;;21006751;28;20056;-66
2023/06/02 07:41:00;;;;;;;4.05;3.00;;;;;;;;;;21007582;28;20040;-68
2023/06/02 07:51:02;;;;;;;6.47;3.45;;;;;;;;;;21005619;28;20084;-67
2023/06/02 08:01:03;;;;;;;6.18;2.72;;;;;;;;;;21006002;28;20489;-74
2023/06/02 08:11:04;;;;;;;7.95;3.40;;;;;;;;;;21004499;28;20041;-71
2023/06/02 08:21:05;;;;;;;8.18;3.63;;;;;;;;;;21004425;28;20511;-73
2023/06/02 08:31:06;;;;;;;6.68;4.03;;;;;;;;;;21001822;28;20053;-74
2023/06/02 08:41:12;;;;;;;4.18;3.05;;;;;;;;;;21001440;28;20490;-73
2023/06/02 08:51:19;;;;;;;6.47;3.85;;;;;;;;;;20996989;28;20040;-72
2023/06/02 09:01:20;;;;;;;7.10;3.80;;;;;;;;;;20991041;28;20055;-72
2023/06/02 09:11:22;;;;;;;6.82;3.40;;;;;;;;;;20993935;28;20047;-72
2023/06/02 09:21:27;;;;;;;6.38;3.83;;;;;;;;;;20988865;28;20044;-71
2023/06/02 09:31:29;;;;;;;5.95;4.13;;;;;;;;;;20994533;28;20088;-71
2023/06/02 09:41:30;;;;;;;7.72;4.10;;;;;;;;;;20997815;28;20401;-71
2023/06/02 09:51:32;;;;;;;8.15;3.95;;;;;;;;;;20995919;28;20485;-72
2023/06/02 10:01:33;;;;;;;6.70;4.28;;;;;;;;;;20996007;28;20405;-71
2023/06/02 10:11:53;;;;;;;8.23;4.18;;;;;;;;;;20994676;28;20174;-72
2023/06/02 10:22:13;;;;;;;7.18;4.53;;;;;;;;;;20994482;28;20049;-72
2023/06/02 10:32:24;;;;;;;5.93;3.95;;;;;;;;;;20994482;28;20060;-71
2023/06/02 10:42:27;;;;;;;5.65;3.50;;;;;;;;;;20993283;28;20048;-71
2023/06/02 10:52:32;;;;;;;6.55;3.60;;;;;;;;;;20994015;28;20045;-71
2023/06/02 11:02:42;;;;;;;6.45;4.28;;;;;;;;;;21007800;28;20083;-71
2023/06/02 11:12:54;;;;;;;6.32;3.95;;;;;;;;;;21006902;28;20044;-70
2023/06/02 11:23:02;;;;;;;8.98;5.43;;;;;;;;;;21007099;28;20051;-71
2023/06/02 11:33:04;;;;;;;7.70;3.92;;;;;;;;;;21005671;28;20060;-71
2023/06/02 11:43:05;;;;;;;9.02;4.78;;;;;;;;;;21006259;28;20497;-71
2023/06/02 11:53:15;;;;;;;8.32;4.32;;;;;;;;;;21006697;28;20482;-71
2023/06/02 12:03:17;;;;;;;5.32;3.72;;;;;;;;;;21003705;28;20437;-71
2023/06/02 12:13:25;;;;;;;5.38;3.58;;;;;;;;;;21001897;28;20040;-71
2023/06/02 12:23:43;;;;;;;4.72;2.85;;;;;;;;;;21002308;28;20037;-72
2023/06/02 12:33:44;;;;;;;4.05;2.65;;;;;;;;;;21001697;28;20060;-73
2023/06/02 12:43:45;;;;;;;2.60;1.95;;;;;;;;;;21000546;28;20531;-72
2023/06/02 12:53:46;;;;;;;5.07;3.10;;;;;;;;;;20999488;28;20508;-72
2023/06/02 13:03:53;;;;;;;6.45;2.80;;;;;;;;;;20996882;28;20048;-72
2023/06/02 13:13:54;;;;;;;4.45;3.00;;;;;;;;;;20997935;28;20053;-72
2023/06/02 13:23:57;;;;;;;5.97;3.08;;;;;;;;;;20996019;28;20045;-72
2023/06/02 13:33:58;;;;;;;3.80;2.28;;;;;;;;;;20997342;28;20056;-71
2023/06/02 13:43:59;;;;;;;5.57;2.55;;;;;;;;;;20995863;28;20048;-71
2023/06/02 13:54:01;;;;;;;5.90;2.15;;;;;;;;;;20995105;28;20036;-71
2023/06/02 14:04:04;;;;;;;2.97;1.60;;;;;;;;;;20995701;28;20051;-72
2023/06/02 14:14:05;;;;;;;3.00;1.85;;;;;;;;;;20994380;28;20493;-72
2023/06/02 14:24:07;;;;;;;4.40;2.13;;;;;;;;;;20994379;28;20051;-69
2023/06/02 14:34:08;;;;;;;3.65;1.63;;;;;;;;;;21000758;28;20417;-72
2023/06/02 14:44:09;;;;;;;2.92;1.58;;;;;;;;;;21007917;28;20501;-72
2023/06/02 14:54:10;;;;;;;4.18;1.90;;;;;;;;;;20999655;28;20147;-73
2023/06/02 15:04:11;;;;;;;3.78;1.55;;;;;;;;;;21005454;28;20057;-74
2023/06/02 15:14:12;;;;;;;4.43;2.97;;;;;;;;;;21008717;28;20044;-71
2023/06/02 15:24:13;;;;;;;4.70;2.20;;;;;;;;;;21006927;28;20047;-66
2023/06/02 15:34:17;;;;;;;6.18;2.10;;;;;;;;;;21008133;28;20426;-59
2023/06/02 15:44:19;;;;;;;4.32;2.17;;;;;;;;;;21005998;28;20481;-64
2023/06/02 15:54:20;;;;;;;6.07;2.67;;;;;;;;;;20991097;28;20131;-68
2023/06/02 16:04:21;;;;;;;3.28;2.00;;;;;;;;;;20991911;28;20041;-64
2023/06/02 16:14:22;;;;;;;11.25;6.75;;;;;;;;;;20976692;28;20045;-63
2023/06/02 16:24:23;;;;;;;4.20;2.63;;;;;;;;;;20981123;28;20365;-67
2023/06/02 16:34:25;;;;;;;6.65;3.45;;;;;;;;;;20988797;28;20052;-70
2023/06/02 16:44:27;;;;;;;5.88;2.78;;;;;;;;;;20989244;28;20040;-66
2023/06/02 16:54:29;;;;;;;4.78;2.60;;;;;;;;;;20987972;28;20041;-72
2023/06/02 17:04:30;;;;;;;13.55;3.95;;;;;;;;;;20914950;28;20060;-65
2023/06/02 17:14:31;;;;;;;7.30;3.78;;;;;;;;;;20924816;28;20576;-66
2023/06/02 17:24:32;;;;;;;11.43;2.75;;;;;;;;;;20993624;28;20493;-70
2023/06/02 17:34:33;;;;;;;5.68;3.72;;;;;;;;;;20988564;28;20048;-63
2023/06/02 17:44:34;;;;;;;7.85;3.20;;;;;;;;;;20986456;28;20056;-62
2023/06/02 17:54:37;;;;;;;6.28;3.72;;;;;;;;;;20994499;28;20040;-70
2023/06/02 18:04:38;;;;;;;6.07;2.90;;;;;;;;;;20970489;28;20048;-72
2023/06/02 18:14:39;;;;;;;6.18;2.78;;;;;;;;;;20975239;28;20044;-68
2023/06/02 18:24:40;;;;;;;5.97;2.30;;;;;;;;;;20973552;28;20068;-69
2023/06/02 18:34:41;;;;;;;21.52;11.60;;;;;;;;;;20983627;28;20047;-69
2023/06/02 18:44:44;;;;;;;8.90;3.53;;;;;;;;;;20979800;28;20044;-64
2023/06/02 18:54:45;;;;;;;6.03;4.15;;;;;;;;;;20970107;28;20123;-66
2023/06/02 19:04:47;;;;;;;6.32;2.40;;;;;;;;;;20988530;28;20124;-67
2023/06/02 19:14:48;;;;;;;6.78;2.95;;;;;;;;;;20983406;28;20128;-62
2023/06/02 19:24:49;;;;;;;9.65;3.42;;;;;;;;;;21001242;28;20071;-64
2023/06/02 19:34:50;;;;;;;5.07;2.90;;;;;;;;;;21007231;28;20437;-68
2023/06/02 19:44:51;;;;;;;5.65;2.33;;;;;;;;;;21006005;28;20397;-69
2023/06/02 19:54:52;;;;;;;10.35;5.72;;;;;;;;;;21005033;28;20040;-70
2023/06/02 20:04:54;;;;;;;5.10;2.80;;;;;;;;;;21003573;28;20359;-70
2023/06/02 20:14:55;;;;;;;4.78;3.28;;;;;;;;;;21001667;28;20106;-71
2023/06/02 20:24:57;;;;;;;5.20;3.33;;;;;;;;;;21003872;28;20507;-70
2023/06/02 20:34:58;;;;;;;6.05;3.15;;;;;;;;;;20999751;28;20049;-71
2023/06/02 20:44:59;;;;;;;6.20;2.92;;;;;;;;;;21001421;28;20113;-70
2023/06/02 20:55:00;;;;;;;4.38;2.15;;;;;;;;;;20999733;28;20047;-69
2023/06/02 21:05:01;;;;;;;2.92;1.80;;;;;;;;;;20997872;28;20087;-70
2023/06/02 21:15:02;;;;;;;6.20;2.22;;;;;;;;;;20995781;28;20132;-71
2023/06/02 21:25:05;;;;;;;5.57;2.40;;;;;;;;;;20996068;28;20041;-71
2023/06/02 21:35:06;;;;;;;5.00;2.80;;;;;;;;;;20995756;28;20086;-71
2023/06/02 21:45:08;;;;;;;5.50;3.03;;;;;;;;;;20996655;28;20400;-72
2023/06/02 21:55:09;;;;;;;6.90;2.88;;;;;;;;;;20996230;28;20547;-70
2023/06/02 22:05:11;;;;;;;3.85;2.80;;;;;;;;;;20995940;28;20052;-71
2023/06/02 22:15:12;;;;;;;4.80;2.60;;;;;;;;;;20995420;28;20040;-71
2023/06/02 22:25:14;;;;;;;6.38;2.67;;;;;;;;;;20995141;28;20067;-72
2023/06/02 22:35:15;;;;;;;5.47;2.17;;;;;;;;;;20993073;28;20148;-70
2023/06/02 22:45:16;;;;;;;3.97;2.10;;;;;;;;;;20994273;28;20083;-70
2023/06/02 22:55:17;;;;;;;5.95;3.10;;;;;;;;;;21002422;28;20044;-71
2023/06/02 23:05:18;;;;;;;4.55;2.58;;;;;;;;;;21009011;28;20041;-70
2023/06/02 23:15:19;;;;;;;4.03;2.28;;;;;;;;;;21008441;28;20485;-71
2023/06/02 23:25:21;;;;;;;4.32;2.53;;;;;;;;;;21007513;28;20040;-70
2023/06/02 23:35:22;;;;;;;3.35;2.25;;;;;;;;;;21007083;28;20049;-70
2023/06/02 23:45:23;;;;;;;5.22;2.70;;;;;;;;;;21007987;28;20037;-71
2023/06/02 23:55:25;;;;;;;5.80;2.40;;;;;;;;;;21006142;28;20044;-70
